Hlavní strana
METAR-TAF:

METAR-TAF

Letiště :

Letiště Agadir

Agadir, Maroko

zeměpisná šířka: 30-20N, zeměpisná délka: 009-24W, výška: 74 m

Aktuální stav počasí

Zpráva byla vytvořena před 27 minutami, v 10:00 UTC
Severní vítr 4 kt
Teplota 15°C
Vlhkost vzduchu 63%
Tlak 1025 hPa
Viditelnost 10 km a více
Žádná oblačnost pod 1500 m, nevyskytují se cumulonimby.

METAR: GMAD 101000Z 35004KT CAVOK 15/08 Q1025 NOSIG

Čas: 11:27 (10:27 UTC)

Předpověď počasí

Zpráva byla vytvořena před 5 hodinami a 27 minutami, v 05:00 UTC
Předpověď platná od 10 v 06 UTC do 11 v 12 UTC
Východoseverovýchodní vítr 8 kt
Viditelnost 10 km a více
Žádná oblačnost pod 1500 m, nevyskytují se cumulonimby.

TAF: GMAD 100500Z 1006/1112 06008KT CAVOK

Stav a předpovědi počasí z více než 4 000 letišť (zprávy METAR a TAF).

Červené a žluté tečky na mapě představují dostupné meteorologické stanice.

Když kurzor umístíte na tečku, zobrazí se název stanice.

Pak kliknutím zobrazíte stav a předpověď počasí.

Chcete-li změnit mapu, kliknutím na zelené tlačítko se znaménkem +mapu přiblížíte, kliknutím na zelené tlačítko se znaménkem – mapu oddálíte a kliknutím na zelené šipky přejdete na sousední mapy.


METAR-TAF: